Carnival Destiny — C6FN4 — position and weather

sailwx.info

Track history (hours):
 
Tides and Currents Weather Stations Pressure Air Temp Water Temp Dewpoint Dewpoint Depression Visibility Wind Speed Wind Dir Waves Ship Positions

Carnival Destiny

Operator: Carnival Cruise Lines

Last reported at 2019-Sep-20 14:00 UTC. Time now 2019-Sep-21 23:51 UTC.
Position N 22°42' W 069°54'.

Type: Passenger vessel. MMSI: 308017000.

Wind from 120 at 28 knots

Barometer 1013.6 mb
Air temperature 28.0 ° C
Visibility: greater than 10.8 NM
Dewpoint 23.7 ° C
Water temperature 28.0 ° C

Date/timePositionNaut miles runAvg speedWind from/ knotsBaromVisibWave heightAir tempDewpointWater temp
2019-Sep-20 14:00N 22°42' W 069°54'22720.6 120 / 281013.610.8 28.023.728.0
2019-Sep-20 03:00N 19°48' W 067°18'9219.6 110 / 221011.610.8 28.023.728.0
2019-Sep-19 22:18N 18°39' W 066°13'517.4
2019-Sep-19 22:00N 18°36' W 066°10'613.0
2019-Sep-19 21:31N 18°29' W 066°08'2 3.3
2019-Sep-19 20:55N 18°28' W 066°07'0 0.0
2019-Sep-19 20:28N 18°28' W 066°07'0 0.0
2019-Sep-19 19:58N 18°28' W 066°07'0 0.0
2019-Sep-19 19:19N 18°28' W 066°07'0 0.0
2019-Sep-19 18:55N 18°28' W 066°07'0 0.0
2019-Sep-19 18:25N 18°28' W 066°07'0 0.0
2019-Sep-19 17:58N 18°28' W 066°07'0 0.0
2019-Sep-19 17:28N 18°28' W 066°07'0 0.0
2019-Sep-19 16:55N 18°28' W 066°07'0 0.0
2019-Sep-19 16:28N 18°28' W 066°07'0 0.0
2019-Sep-19 15:58N 18°28' W 066°07'0 0.0
2019-Sep-19 15:28N 18°28' W 066°07'0 0.0
2019-Sep-19 14:46N 18°28' W 066°07'0 0.0
2019-Sep-19 14:28N 18°28' W 066°07'0 0.0
2019-Sep-19 13:58N 18°28' W 066°07'0 0.0
2019-Sep-19 13:28N 18°28' W 066°07'0 0.0
2019-Sep-19 12:58N 18°28' W 066°07'0 0.0
2019-Sep-19 12:25N 18°28' W 066°07'0 0.0
2019-Sep-19 11:58N 18°28' W 066°07'0 0.0
2019-Sep-19 11:28N 18°28' W 066°07'0 0.4
2019-Sep-19 11:00N 18°28' W 066°07'3 6.0
2019-Sep-19 10:30N 18°30' W 066°08'611.4
2019-Sep-19 10:00N 18°33' W 066°02'610.9
2019-Sep-19 09:30N 18°33' W 065°57'611.7
2019-Sep-19 09:00N 18°32' W 065°51'611.7
2019-Sep-19 08:30N 18°31' W 065°44'612.3
2019-Sep-19 08:00N 18°30' W 065°38'714.5
2019-Sep-19 07:31N 18°29' W 065°31'815.6
2019-Sep-19 07:01N 18°27' W 065°23'815.4
2019-Sep-19 06:31N 18°26' W 065°15'713.7
2019-Sep-19 06:00N 18°21' W 065°10'714.2
2019-Sep-19 05:31N 18°14' W 065°08'714.4
2019-Sep-19 05:00N 18°12' W 065°01'816.0
2019-Sep-19 04:31N 18°10' W 064°53'816.0
2019-Sep-19 04:00N 18°08' W 064°45'915.7
2019-Sep-19 03:27N 18°06' W 064°36'817.7
2019-Sep-19 03:00N 18°00' W 064°30'6015.4 100 / 121010.810.8 28.023.728.0
2019-Sep-18 23:06N 18°01' W 063°27'1115.8
2019-Sep-18 22:25N 18°01' W 063°16'1015.7
2019-Sep-18 21:46N 18°00' W 063°05'2 2.9
2019-Sep-18 21:01N 18°01' W 063°03'0 0.0
2019-Sep-18 20:53N 18°01' W 063°03'0 0.0
2019-Sep-18 20:06N 18°01' W 063°03'0 0.0
2019-Sep-18 19:49N 18°01' W 063°03'0 0.0
2019-Sep-18 19:21N 18°01' W 063°03'0 0.0
2019-Sep-18 18:54N 18°01' W 063°03'0 0.0
2019-Sep-18 18:25N 18°01' W 063°03'0 0.0
2019-Sep-18 17:54N 18°01' W 063°03'0 0.0
2019-Sep-18 17:24N 18°01' W 063°03'0 0.0
2019-Sep-18 16:54N 18°01' W 063°03'0 0.0
2019-Sep-18 15:51N 18°01' W 063°03'0 0.0
2019-Sep-18 15:24N 18°01' W 063°03'0 0.0
2019-Sep-18 14:57N 18°01' W 063°03'0 0.0
2019-Sep-18 14:12N 18°01' W 063°03'0 0.0
2019-Sep-18 13:45N 18°01' W 063°03'0 0.0
2019-Sep-18 13:30N 18°01' W 063°03'0 0.0
2019-Sep-18 12:57N 18°01' W 063°03'0 0.0
2019-Sep-18 12:30N 18°01' W 063°03'0 0.0
2019-Sep-18 12:00N 18°01' W 063°03'0 0.0
2019-Sep-18 11:29N 18°01' W 063°03'1 2.0
2019-Sep-18 10:59N 18°00' W 063°04'6 9.6
2019-Sep-18 10:24N 18°01' W 063°10'410.5
2019-Sep-18 10:00N 18°01' W 063°14'810.8
2019-Sep-18 09:18N 18°01' W 063°22'310.7
2019-Sep-18 08:59N 18°02' W 063°26'610.6
2019-Sep-18 08:23N 18°02' W 063°32'610.7
2019-Sep-18 07:52N 18°03' W 063°38'410.6
2019-Sep-18 07:27N 18°03' W 063°43'5010.7
2019-Sep-18 02:43N 18°06' W 064°36'211.1
2019-Sep-18 02:30N 18°06' W 064°38'511.0
2019-Sep-18 02:01N 18°07' W 064°44'511.0
2019-Sep-18 01:31N 18°07' W 064°50'510.3
2019-Sep-18 01:01N 18°09' W 064°55'713.6
2019-Sep-18 00:30N 18°15' W 064°55'5 8.5
2019-Sep-17 23:58N 18°20' W 064°56'0 0.0
2019-Sep-17 16:40N 18°20' W 064°55'0 0.0
2019-Sep-17 15:40N 18°20' W 064°55'0 0.3
2019-Sep-17 15:30N 18°20' W 064°56'4 7.2
2019-Sep-17 15:00N 18°16' W 064°56'510.2
2019-Sep-17 14:30N 18°17' W 065°01'714.1
2019-Sep-17 14:00N 18°20' W 065°07'714.0
2019-Sep-17 13:30N 18°27' W 065°08'918.1
2019-Sep-17 13:00N 18°35' W 065°05'917.9
2019-Sep-17 12:30N 18°44' W 065°01'917.6
2019-Sep-17 12:00N 18°52' W 064°60'917.4
2019-Sep-17 11:30N 19°01' W 065°02'917.5
2019-Sep-17 11:00N 19°10' W 065°03'39318.7
2019-Sep-16 14:00N 24°36' W 069°00'7418.5 210 / 121016.410.8 28.0 28.0
2019-Sep-16 10:00N 25°36' W 069°48'30220.1 180 / 151015.410.8 28.025.2
2019-Sep-15 19:00N 29°42' W 073°06'6020.0 180 / 231015.610.8 28.023.7
2019-Sep-15 16:00N 30°12' W 074°06'7615.2 160 / 251016.910.8 28.025.228.0
2019-Sep-15 11:00N 30°48' W 075°24'8821.9 150 / 281018.9 5.4 28.022.127.0
2019-Sep-15 07:00N 31°30' W 076°54'   110 / 251016.110.8 28.023.7
2019-Sep-12 06:00N 32°18' W 064°48'49 2.5 120 / 101017.9 27.019.328.0
2019-Sep-11 10:00N 31°36' W 065°18'8320.8 120 / 151018.910.8 27.019.328.0
2019-Sep-11 06:00N 30°54' W 066°42'23619.6 130 / 211020.010.8 28.020.528.0
2019-Sep-10 18:00N 28°54' W 070°36'   090 / 181020.610.8 28.022.128.0
Track history (hours):
 
Tides and Currents Weather Stations Pressure Air Temp Water Temp Dewpoint Dewpoint Depression Visibility Wind Speed Wind Dir Waves Ship Positions

Carnival Destiny

Operator: Carnival Cruise Lines

Last reported at 2019-Sep-20 14:00 UTC. Time now 2019-Sep-21 23:51 UTC.
Position N 22°42' W 069°54'.

Type: Passenger vessel. MMSI: 308017000.

Wind from 120 at 28 knots

Barometer 1013.6 mb
Air temperature 28.0 ° C
Visibility: greater than 10.8 NM
Dewpoint 23.7 ° C
Water temperature 28.0 ° C

Date/timePositionNaut miles runAvg speedWind from/ knotsBaromVisibWave heightAir tempDewpointWater temp
2019-Sep-20 14:00N 22°42' W 069°54'22720.6 120 / 281013.610.8 28.023.728.0
2019-Sep-20 03:00N 19°48' W 067°18'9219.6 110 / 221011.610.8 28.023.728.0
2019-Sep-19 22:18N 18°39' W 066°13'517.4
2019-Sep-19 22:00N 18°36' W 066°10'613.0
2019-Sep-19 21:31N 18°29' W 066°08'2 3.3
2019-Sep-19 20:55N 18°28' W 066°07'0 0.0
2019-Sep-19 20:28N 18°28' W 066°07'0 0.0
2019-Sep-19 19:58N 18°28' W 066°07'0 0.0
2019-Sep-19 19:19N 18°28' W 066°07'0 0.0
2019-Sep-19 18:55N 18°28' W 066°07'0 0.0
2019-Sep-19 18:25N 18°28' W 066°07'0 0.0
2019-Sep-19 17:58N 18°28' W 066°07'0 0.0
2019-Sep-19 17:28N 18°28' W 066°07'0 0.0
2019-Sep-19 16:55N 18°28' W 066°07'0 0.0
2019-Sep-19 16:28N 18°28' W 066°07'0 0.0
2019-Sep-19 15:58N 18°28' W 066°07'0 0.0
2019-Sep-19 15:28N 18°28' W 066°07'0 0.0
2019-Sep-19 14:46N 18°28' W 066°07'0 0.0
2019-Sep-19 14:28N 18°28' W 066°07'0 0.0
2019-Sep-19 13:58N 18°28' W 066°07'0 0.0
2019-Sep-19 13:28N 18°28' W 066°07'0 0.0
2019-Sep-19 12:58N 18°28' W 066°07'0 0.0
2019-Sep-19 12:25N 18°28' W 066°07'0 0.0
2019-Sep-19 11:58N 18°28' W 066°07'0 0.0
2019-Sep-19 11:28N 18°28' W 066°07'0 0.4
2019-Sep-19 11:00N 18°28' W 066°07'3 6.0
2019-Sep-19 10:30N 18°30' W 066°08'611.4
2019-Sep-19 10:00N 18°33' W 066°02'610.9
2019-Sep-19 09:30N 18°33' W 065°57'611.7
2019-Sep-19 09:00N 18°32' W 065°51'611.7
2019-Sep-19 08:30N 18°31' W 065°44'612.3
2019-Sep-19 08:00N 18°30' W 065°38'714.5
2019-Sep-19 07:31N 18°29' W 065°31'815.6
2019-Sep-19 07:01N 18°27' W 065°23'815.4
2019-Sep-19 06:31N 18°26' W 065°15'713.7
2019-Sep-19 06:00N 18°21' W 065°10'714.2
2019-Sep-19 05:31N 18°14' W 065°08'714.4
2019-Sep-19 05:00N 18°12' W 065°01'816.0
2019-Sep-19 04:31N 18°10' W 064°53'816.0
2019-Sep-19 04:00N 18°08' W 064°45'915.7
2019-Sep-19 03:27N 18°06' W 064°36'817.7
2019-Sep-19 03:00N 18°00' W 064°30'6015.4 100 / 121010.810.8 28.023.728.0
2019-Sep-18 23:06N 18°01' W 063°27'1115.8
2019-Sep-18 22:25N 18°01' W 063°16'1015.7
2019-Sep-18 21:46N 18°00' W 063°05'2 2.9
2019-Sep-18 21:01N 18°01' W 063°03'0 0.0
2019-Sep-18 20:53N 18°01' W 063°03'0 0.0
2019-Sep-18 20:06N 18°01' W 063°03'0 0.0
2019-Sep-18 19:49N 18°01' W 063°03'0 0.0
2019-Sep-18 19:21N 18°01' W 063°03'0 0.0
2019-Sep-18 18:54N 18°01' W 063°03'0 0.0
2019-Sep-18 18:25N 18°01' W 063°03'0 0.0
2019-Sep-18 17:54N 18°01' W 063°03'0 0.0
2019-Sep-18 17:24N 18°01' W 063°03'0 0.0
2019-Sep-18 16:54N 18°01' W 063°03'0 0.0
2019-Sep-18 15:51N 18°01' W 063°03'0 0.0
2019-Sep-18 15:24N 18°01' W 063°03'0 0.0
2019-Sep-18 14:57N 18°01' W 063°03'0 0.0
2019-Sep-18 14:12N 18°01' W 063°03'0 0.0
2019-Sep-18 13:45N 18°01' W 063°03'0 0.0
2019-Sep-18 13:30N 18°01' W 063°03'0 0.0
2019-Sep-18 12:57N 18°01' W 063°03'0 0.0
2019-Sep-18 12:30N 18°01' W 063°03'0 0.0
2019-Sep-18 12:00N 18°01' W 063°03'0 0.0
2019-Sep-18 11:29N 18°01' W 063°03'1 2.0
2019-Sep-18 10:59N 18°00' W 063°04'6 9.6
2019-Sep-18 10:24N 18°01' W 063°10'410.5
2019-Sep-18 10:00N 18°01' W 063°14'810.8
2019-Sep-18 09:18N 18°01' W 063°22'310.7
2019-Sep-18 08:59N 18°02' W 063°26'610.6
2019-Sep-18 08:23N 18°02' W 063°32'610.7
2019-Sep-18 07:52N 18°03' W 063°38'410.6
2019-Sep-18 07:27N 18°03' W 063°43'5010.7
2019-Sep-18 02:43N 18°06' W 064°36'211.1
2019-Sep-18 02:30N 18°06' W 064°38'511.0
2019-Sep-18 02:01N 18°07' W 064°44'511.0
2019-Sep-18 01:31N 18°07' W 064°50'510.3
2019-Sep-18 01:01N 18°09' W 064°55'713.6
2019-Sep-18 00:30N 18°15' W 064°55'5 8.5
2019-Sep-17 23:58N 18°20' W 064°56'0 0.0
2019-Sep-17 16:40N 18°20' W 064°55'0 0.0
2019-Sep-17 15:40N 18°20' W 064°55'0 0.3
2019-Sep-17 15:30N 18°20' W 064°56'4 7.2
2019-Sep-17 15:00N 18°16' W 064°56'510.2
2019-Sep-17 14:30N 18°17' W 065°01'714.1
2019-Sep-17 14:00N 18°20' W 065°07'714.0
2019-Sep-17 13:30N 18°27' W 065°08'918.1
2019-Sep-17 13:00N 18°35' W 065°05'917.9
2019-Sep-17 12:30N 18°44' W 065°01'917.6
2019-Sep-17 12:00N 18°52' W 064°60'917.4
2019-Sep-17 11:30N 19°01' W 065°02'917.5
2019-Sep-17 11:00N 19°10' W 065°03'39318.7
2019-Sep-16 14:00N 24°36' W 069°00'7418.5 210 / 121016.410.8 28.0 28.0
2019-Sep-16 10:00N 25°36' W 069°48'30220.1 180 / 151015.410.8 28.025.2
2019-Sep-15 19:00N 29°42' W 073°06'6020.0 180 / 231015.610.8 28.023.7
2019-Sep-15 16:00N 30°12' W 074°06'7615.2 160 / 251016.910.8 28.025.228.0
2019-Sep-15 11:00N 30°48' W 075°24'8821.9 150 / 281018.9 5.4 28.022.127.0
2019-Sep-15 07:00N 31°30' W 076°54'   110 / 251016.110.8 28.023.7
2019-Sep-12 06:00N 32°18' W 064°48'49 2.5 120 / 101017.9 27.019.328.0
2019-Sep-11 10:00N 31°36' W 065°18'8320.8 120 / 151018.910.8 27.019.328.0
2019-Sep-11 06:00N 30°54' W 066°42'23619.6 130 / 211020.010.8 28.020.528.0
2019-Sep-10 18:00N 28°54' W 070°36'   090 / 181020.610.8 28.022.128.0

Dump ship's entire track history